sensor_id;sensor_type;location;lat;lon;timestamp;pressure;altitude;pressure_sealevel;temperature;humidity
52983;BME280;48698;45.736;13.926;2022-09-13T00:03:33;97486.16;;;12.10;100.00
52983;BME280;48698;45.736;13.926;2022-09-13T00:08:36;97576.13;;;12.49;100.00
52983;BME280;48698;45.736;13.926;2022-09-13T00:13:40;97583.44;;;12.46;100.00
52983;BME280;48698;45.736;13.926;2022-09-13T00:18:44;97503.59;;;12.16;100.00
52983;BME280;48698;45.736;13.926;2022-09-13T00:23:50;97460.31;;;11.67;100.00
52983;BME280;48698;45.736;13.926;2022-09-13T00:28:56;97571.19;;;12.57;100.00
52983;BME280;48698;45.736;13.926;2022-09-13T00:34:01;97463.28;;;11.62;100.00
52983;BME280;48698;45.736;13.926;2022-09-13T00:39:05;97581.97;;;12.40;100.00
52983;BME280;48698;45.736;13.926;2022-09-13T00:44:48;97582.84;;;12.11;100.00
52983;BME280;48698;45.736;13.926;2022-09-13T00:50:01;97549.00;;;12.42;100.00
52983;BME280;48698;45.736;13.926;2022-09-13T00:55:14;97457.50;;;11.70;100.00
52983;BME280;48698;45.736;13.926;2022-09-13T01:00:19;97474.34;;;11.70;100.00
52983;BME280;48698;45.736;13.926;2022-09-13T01:05:26;97568.22;;;12.18;100.00
52983;BME280;48698;45.736;13.926;2022-09-13T01:10:33;97563.56;;;11.60;100.00
52983;BME280;48698;45.736;13.926;2022-09-13T01:15:38;97524.50;;;11.92;100.00
52983;BME280;48698;45.736;13.926;2022-09-13T01:31:20;97538.69;;;11.61;100.00
52983;BME280;48698;45.736;13.926;2022-09-13T01:37:08;97510.47;;;11.74;100.00
52983;BME280;48698;45.736;13.926;2022-09-13T01:42:44;97465.78;;;11.50;100.00
52983;BME280;48698;45.736;13.926;2022-09-13T01:48:16;97565.97;;;11.96;100.00
52983;BME280;48698;45.736;13.926;2022-09-13T01:53:36;97513.81;;;11.47;100.00
52983;BME280;48698;45.736;13.926;2022-09-13T01:58:57;97549.91;;;11.98;100.00
52983;BME280;48698;45.736;13.926;2022-09-13T02:04:09;97555.69;;;11.74;100.00
52983;BME280;48698;45.736;13.926;2022-09-13T02:09:20;97515.81;;;11.43;100.00
52983;BME280;48698;45.736;13.926;2022-09-13T02:14:30;97459.16;;;11.41;100.00
52983;BME280;48698;45.736;13.926;2022-09-13T02:19:51;97382.66;;;10.85;100.00
52983;BME280;48698;45.736;13.926;2022-09-13T02:24:58;97526.31;;;11.91;100.00
52983;BME280;48698;45.736;13.926;2022-09-13T02:30:07;97535.59;;;11.84;100.00
52983;BME280;48698;45.736;13.926;2022-09-13T02:35:25;97532.00;;;11.70;100.00
52983;BME280;48698;45.736;13.926;2022-09-13T02:40:38;97542.38;;;11.74;100.00
52983;BME280;48698;45.736;13.926;2022-09-13T02:45:50;97546.84;;;11.74;100.00
52983;BME280;48698;45.736;13.926;2022-09-13T02:51:02;97358.47;;;9.94;100.00
52983;BME280;48698;45.736;13.926;2022-09-13T03:01:15;97495.47;;;11.26;100.00
52983;BME280;48698;45.736;13.926;2022-09-13T03:06:25;97374.25;;;10.61;100.00
52983;BME280;48698;45.736;13.926;2022-09-13T03:17:06;97554.63;;;11.61;100.00
52983;BME280;48698;45.736;13.926;2022-09-13T03:23:16;97558.84;;;11.65;100.00
52983;BME280;48698;45.736;13.926;2022-09-13T03:28:13;97546.16;;;11.86;100.00
52983;BME280;48698;45.736;13.926;2022-09-13T03:38:54;97500.44;;;11.79;100.00
52983;BME280;48698;45.736;13.926;2022-09-13T03:44:05;97489.56;;;11.67;100.00
52983;BME280;48698;45.736;13.926;2022-09-13T03:49:15;97448.31;;;11.30;100.00
52983;BME280;48698;45.736;13.926;2022-09-13T03:54:23;97417.63;;;11.09;100.00
52983;BME280;48698;45.736;13.926;2022-09-13T03:59:26;97443.50;;;11.21;100.00
52983;BME280;48698;45.736;13.926;2022-09-13T04:04:31;97425.50;;;10.95;100.00
52983;BME280;48698;45.736;13.926;2022-09-13T04:09:35;97518.53;;;11.41;100.00
52983;BME280;48698;45.736;13.926;2022-09-13T04:14:39;97416.06;;;11.05;100.00
52983;BME280;48698;45.736;13.926;2022-09-13T04:19:43;97478.13;;;11.35;100.00
52983;BME280;48698;45.736;13.926;2022-09-13T04:24:47;97335.53;;;10.26;100.00
52983;BME280;48698;45.736;13.926;2022-09-13T04:29:51;97451.38;;;10.91;100.00
52983;BME280;48698;45.736;13.926;2022-09-13T04:34:55;97321.81;;;10.18;100.00
52983;BME280;48698;45.736;13.926;2022-09-13T04:39:58;97531.38;;;11.18;100.00
52983;BME280;48698;45.736;13.926;2022-09-13T04:45:02;97425.28;;;10.35;100.00
52983;BME280;48698;45.736;13.926;2022-09-13T04:50:06;97492.91;;;10.94;100.00
52983;BME280;48698;45.736;13.926;2022-09-13T04:55:11;97355.22;;;10.22;100.00
52983;BME280;48698;45.736;13.926;2022-09-13T05:00:14;97492.03;;;10.93;100.00
52983;BME280;48698;45.736;13.926;2022-09-13T05:05:18;97511.59;;;11.23;100.00
52983;BME280;48698;45.736;13.926;2022-09-13T05:10:22;97353.25;;;10.41;100.00
52983;BME280;48698;45.736;13.926;2022-09-13T05:15:26;97511.41;;;11.58;100.00
52983;BME280;48698;45.736;13.926;2022-09-13T05:20:30;97363.63;;;10.93;100.00
52983;BME280;48698;45.736;13.926;2022-09-13T05:25:33;97552.38;;;12.16;100.00
52983;BME280;48698;45.736;13.926;2022-09-13T05:30:36;97455.28;;;11.62;100.00
52983;BME280;48698;45.736;13.926;2022-09-13T05:35:43;97370.97;;;11.19;100.00
52983;BME280;48698;45.736;13.926;2022-09-13T05:40:53;97357.75;;;11.33;100.00
52983;BME280;48698;45.736;13.926;2022-09-13T05:46:19;97530.84;;;12.49;100.00
52983;BME280;48698;45.736;13.926;2022-09-13T05:51:24;97532.75;;;12.89;100.00
52983;BME280;48698;45.736;13.926;2022-09-13T05:56:28;97508.59;;;13.35;100.00
52983;BME280;48698;45.736;13.926;2022-09-13T06:01:33;97540.06;;;13.83;100.00
52983;BME280;48698;45.736;13.926;2022-09-13T06:06:36;97365.56;;;13.20;100.00
52983;BME280;48698;45.736;13.926;2022-09-13T06:11:40;97526.94;;;14.46;100.00
52983;BME280;48698;45.736;13.926;2022-09-13T06:16:44;97350.78;;;13.80;100.00
52983;BME280;48698;45.736;13.926;2022-09-13T06:21:47;97469.00;;;14.72;100.00
52983;BME280;48698;45.736;13.926;2022-09-13T06:26:50;97482.63;;;15.06;100.00
52983;BME280;48698;45.736;13.926;2022-09-13T06:31:54;97399.28;;;14.75;100.00
52983;BME280;48698;45.736;13.926;2022-09-13T06:36:57;97366.97;;;14.78;100.00
52983;BME280;48698;45.736;13.926;2022-09-13T06:42:01;97424.06;;;15.63;100.00
52983;BME280;48698;45.736;13.926;2022-09-13T06:47:04;97346.41;;;15.39;100.00
52983;BME280;48698;45.736;13.926;2022-09-13T06:52:09;97376.56;;;15.88;100.00
52983;BME280;48698;45.736;13.926;2022-09-13T06:57:12;97406.97;;;16.22;100.00
52983;BME280;48698;45.736;13.926;2022-09-13T07:02:16;97472.03;;;17.03;100.00
52983;BME280;48698;45.736;13.926;2022-09-13T07:07:20;97405.59;;;16.85;100.00
52983;BME280;48698;45.736;13.926;2022-09-13T07:12:23;97394.13;;;17.05;100.00
52983;BME280;48698;45.736;13.926;2022-09-13T07:17:27;97390.78;;;17.24;100.00
52983;BME280;48698;45.736;13.926;2022-09-13T07:22:32;97438.16;;;17.79;100.00
52983;BME280;48698;45.736;13.926;2022-09-13T07:27:36;97343.13;;;17.48;100.00
52983;BME280;48698;45.736;13.926;2022-09-13T07:32:39;97452.22;;;18.55;100.00
52983;BME280;48698;45.736;13.926;2022-09-13T07:37:44;97411.41;;;18.81;100.00
52983;BME280;48698;45.736;13.926;2022-09-13T07:42:48;97497.16;;;19.55;100.00
52983;BME280;48698;45.736;13.926;2022-09-13T07:47:52;97406.41;;;19.46;100.00
52983;BME280;48698;45.736;13.926;2022-09-13T07:52:56;97427.41;;;19.62;100.00
52983;BME280;48698;45.736;13.926;2022-09-13T07:57:59;97467.22;;;20.27;100.00
52983;BME280;48698;45.736;13.926;2022-09-13T08:03:03;97329.06;;;19.58;100.00
52983;BME280;48698;45.736;13.926;2022-09-13T08:08:06;97486.25;;;20.45;100.00
52983;BME280;48698;45.736;13.926;2022-09-13T08:13:10;97295.53;;;19.89;100.00
52983;BME280;48698;45.736;13.926;2022-09-13T08:18:13;97463.81;;;21.47;100.00
52983;BME280;48698;45.736;13.926;2022-09-13T08:23:17;97323.22;;;20.57;100.00
52983;BME280;48698;45.736;13.926;2022-09-13T08:28:21;97476.47;;;22.19;100.00
52983;BME280;48698;45.736;13.926;2022-09-13T08:33:28;97501.72;;;21.55;100.00
52983;BME280;48698;45.736;13.926;2022-09-13T08:38:34;97339.03;;;20.42;100.00
52983;BME280;48698;45.736;13.926;2022-09-13T08:43:51;97407.97;;;21.10;100.00
52983;BME280;48698;45.736;13.926;2022-09-13T08:49:00;97390.81;;;21.29;100.00
52983;BME280;48698;45.736;13.926;2022-09-13T08:54:10;97460.16;;;22.10;100.00
52983;BME280;48698;45.736;13.926;2022-09-13T09:04:53;97475.59;;;23.98;100.00
52983;BME280;48698;45.736;13.926;2022-09-13T09:10:46;97481.97;;;23.13;100.00
52983;BME280;48698;45.736;13.926;2022-09-13T09:15:36;97473.09;;;22.78;100.00
52983;BME280;48698;45.736;13.926;2022-09-13T09:20:45;97480.91;;;23.32;100.00
52983;BME280;48698;45.736;13.926;2022-09-13T09:25:51;97489.56;;;23.36;100.00
52983;BME280;48698;45.736;13.926;2022-09-13T09:31:01;97426.63;;;23.42;100.00
52983;BME280;48698;45.736;13.926;2022-09-13T09:36:26;97488.09;;;23.15;100.00
52983;BME280;48698;45.736;13.926;2022-09-13T09:41:33;97458.28;;;22.11;100.00
52983;BME280;48698;45.736;13.926;2022-09-13T09:46:39;97353.88;;;21.30;100.00
52983;BME280;48698;45.736;13.926;2022-09-13T09:51:43;97288.56;;;21.17;100.00
52983;BME280;48698;45.736;13.926;2022-09-13T09:56:52;97425.38;;;23.02;100.00
52983;BME280;48698;45.736;13.926;2022-09-13T10:01:58;97436.69;;;22.98;100.00
52983;BME280;48698;45.736;13.926;2022-09-13T10:07:23;97491.91;;;22.79;100.00
52983;BME280;48698;45.736;13.926;2022-09-13T10:12:30;97410.44;;;22.47;100.00
52983;BME280;48698;45.736;13.926;2022-09-13T10:17:36;97461.34;;;22.87;100.00
52983;BME280;48698;45.736;13.926;2022-09-13T10:22:39;97430.78;;;22.33;100.00
52983;BME280;48698;45.736;13.926;2022-09-13T10:27:51;97452.03;;;23.99;100.00
52983;BME280;48698;45.736;13.926;2022-09-13T10:32:57;97267.25;;;24.81;100.00
52983;BME280;48698;45.736;13.926;2022-09-13T10:42:55;97422.72;;;24.99;100.00
52983;BME280;48698;45.736;13.926;2022-09-13T10:48:12;97388.16;;;24.45;100.00
52983;BME280;48698;45.736;13.926;2022-09-13T10:53:32;97444.59;;;24.09;100.00
52983;BME280;48698;45.736;13.926;2022-09-13T11:08:53;97439.91;;;24.67;100.00
52983;BME280;48698;45.736;13.926;2022-09-13T11:14:23;97323.19;;;22.79;100.00
52983;BME280;48698;45.736;13.926;2022-09-13T11:36:55;97399.53;;;24.16;100.00
52983;BME280;48698;45.736;13.926;2022-09-13T11:52:49;97449.56;;;24.38;100.00
52983;BME280;48698;45.736;13.926;2022-09-13T11:57:59;97325.41;;;23.25;100.00
52983;BME280;48698;45.736;13.926;2022-09-13T12:08:18;97451.28;;;24.23;100.00
52983;BME280;48698;45.736;13.926;2022-09-13T12:13:28;97418.69;;;24.31;100.00
52983;BME280;48698;45.736;13.926;2022-09-13T12:18:39;97461.97;;;24.40;100.00
52983;BME280;48698;45.736;13.926;2022-09-13T12:29:26;97454.13;;;24.13;100.00
52983;BME280;48698;45.736;13.926;2022-09-13T12:34:41;97297.59;;;23.73;100.00
52983;BME280;48698;45.736;13.926;2022-09-13T12:56:38;97314.94;;;24.12;100.00
52983;BME280;48698;45.736;13.926;2022-09-13T13:01:46;97334.53;;;23.74;100.00
52983;BME280;48698;45.736;13.926;2022-09-13T13:07:02;97433.13;;;24.55;100.00
52983;BME280;48698;45.736;13.926;2022-09-13T13:12:24;97353.34;;;24.00;100.00
52983;BME280;48698;45.736;13.926;2022-09-13T13:17:48;97372.91;;;24.19;100.00
52983;BME280;48698;45.736;13.926;2022-09-13T13:28:51;97390.88;;;24.53;100.00
52983;BME280;48698;45.736;13.926;2022-09-13T13:49:42;97319.63;;;23.78;100.00
52983;BME280;48698;45.736;13.926;2022-09-13T13:55:00;97389.88;;;24.38;100.00
52983;BME280;48698;45.736;13.926;2022-09-13T14:00:18;97411.41;;;24.55;100.00
52983;BME280;48698;45.736;13.926;2022-09-13T14:10:52;97424.22;;;23.89;100.00
52983;BME280;48698;45.736;13.926;2022-09-13T14:21:28;97359.44;;;23.20;100.00
52983;BME280;48698;45.736;13.926;2022-09-13T14:26:32;97248.97;;;22.89;100.00
52983;BME280;48698;45.736;13.926;2022-09-13T14:31:36;97398.97;;;23.04;100.00
52983;BME280;48698;45.736;13.926;2022-09-13T14:36:50;97422.09;;;23.66;100.00
52983;BME280;48698;45.736;13.926;2022-09-13T14:42:13;97417.53;;;23.67;100.00
52983;BME280;48698;45.736;13.926;2022-09-13T14:47:19;97410.13;;;23.77;100.00
52983;BME280;48698;45.736;13.926;2022-09-13T14:52:29;97229.75;;;22.33;100.00
52983;BME280;48698;45.736;13.926;2022-09-13T14:57:37;97406.31;;;23.54;100.00
52983;BME280;48698;45.736;13.926;2022-09-13T15:02:47;97409.03;;;23.46;100.00
52983;BME280;48698;45.736;13.926;2022-09-13T15:07:51;97411.97;;;23.35;100.00
52983;BME280;48698;45.736;13.926;2022-09-13T15:33:44;97361.66;;;22.39;100.00
52983;BME280;48698;45.736;13.926;2022-09-13T15:39:09;97415.84;;;22.47;100.00
52983;BME280;48698;45.736;13.926;2022-09-13T15:44:15;97305.34;;;21.55;100.00
52983;BME280;48698;45.736;13.926;2022-09-13T15:49:20;97376.47;;;22.27;100.00
52983;BME280;48698;45.736;13.926;2022-09-13T15:54:30;97324.47;;;22.15;100.00
52983;BME280;48698;45.736;13.926;2022-09-13T15:59:34;97321.28;;;22.45;100.00
52983;BME280;48698;45.736;13.926;2022-09-13T16:04:37;97346.50;;;23.05;100.00
52983;BME280;48698;45.736;13.926;2022-09-13T16:09:41;97357.66;;;23.02;100.00
52983;BME280;48698;45.736;13.926;2022-09-13T16:14:44;97389.19;;;23.11;100.00
52983;BME280;48698;45.736;13.926;2022-09-13T16:19:48;97387.44;;;22.69;100.00
52983;BME280;48698;45.736;13.926;2022-09-13T16:24:51;97307.91;;;22.44;100.00
52983;BME280;48698;45.736;13.926;2022-09-13T16:29:53;97392.38;;;22.73;100.00
52983;BME280;48698;45.736;13.926;2022-09-13T16:34:56;97357.41;;;22.10;100.00
52983;BME280;48698;45.736;13.926;2022-09-13T16:40:03;97405.53;;;21.89;100.00
52983;BME280;48698;45.736;13.926;2022-09-13T16:45:13;97417.47;;;21.14;100.00
52983;BME280;48698;45.736;13.926;2022-09-13T16:50:21;97409.66;;;20.75;100.00
52983;BME280;48698;45.736;13.926;2022-09-13T16:55:25;97394.69;;;20.15;100.00
52983;BME280;48698;45.736;13.926;2022-09-13T17:00:29;97369.44;;;19.48;100.00
52983;BME280;48698;45.736;13.926;2022-09-13T17:05:35;97447.59;;;19.77;100.00
52983;BME280;48698;45.736;13.926;2022-09-13T17:10:37;97417.38;;;19.54;100.00
52983;BME280;48698;45.736;13.926;2022-09-13T17:15:47;97438.25;;;19.72;100.00
52983;BME280;48698;45.736;13.926;2022-09-13T17:20:54;97320.16;;;19.08;100.00
52983;BME280;48698;45.736;13.926;2022-09-13T17:25:57;97427.13;;;19.55;100.00
52983;BME280;48698;45.736;13.926;2022-09-13T17:31:00;97414.00;;;18.41;100.00
52983;BME280;48698;45.736;13.926;2022-09-13T17:36:05;97365.03;;;18.17;100.00
52983;BME280;48698;45.736;13.926;2022-09-13T17:41:15;97414.97;;;18.40;100.00
52983;BME280;48698;45.736;13.926;2022-09-13T17:46:21;97473.84;;;18.75;100.00
52983;BME280;48698;45.736;13.926;2022-09-13T17:51:30;97484.84;;;17.98;100.00
52983;BME280;48698;45.736;13.926;2022-09-13T17:56:38;97381.31;;;17.63;100.00
52983;BME280;48698;45.736;13.926;2022-09-13T18:01:47;97495.47;;;18.21;100.00
52983;BME280;48698;45.736;13.926;2022-09-13T18:07:00;97433.63;;;18.00;100.00
52983;BME280;48698;45.736;13.926;2022-09-13T18:12:08;97510.84;;;17.98;100.00
52983;BME280;48698;45.736;13.926;2022-09-13T18:17:14;97500.09;;;17.22;100.00
52983;BME280;48698;45.736;13.926;2022-09-13T18:22:24;97433.88;;;16.89;100.00
52983;BME280;48698;45.736;13.926;2022-09-13T18:27:27;97500.56;;;17.49;100.00
52983;BME280;48698;45.736;13.926;2022-09-13T18:32:31;97443.00;;;16.97;100.00
52983;BME280;48698;45.736;13.926;2022-09-13T18:37:34;97463.94;;;17.37;100.00
52983;BME280;48698;45.736;13.926;2022-09-13T18:42:38;97522.38;;;16.78;100.00
52983;BME280;48698;45.736;13.926;2022-09-13T18:47:42;97510.09;;;17.20;100.00
52983;BME280;48698;45.736;13.926;2022-09-13T18:52:44;97495.31;;;17.47;100.00
52983;BME280;48698;45.736;13.926;2022-09-13T18:57:56;97500.59;;;17.16;100.00
52983;BME280;48698;45.736;13.926;2022-09-13T19:02:59;97487.38;;;16.90;100.00
52983;BME280;48698;45.736;13.926;2022-09-13T19:08:13;97515.19;;;17.00;100.00
52983;BME280;48698;45.736;13.926;2022-09-13T19:13:16;97482.78;;;16.92;100.00
52983;BME280;48698;45.736;13.926;2022-09-13T19:18:20;97488.38;;;17.00;100.00
52983;BME280;48698;45.736;13.926;2022-09-13T19:23:22;97481.91;;;16.70;100.00
52983;BME280;48698;45.736;13.926;2022-09-13T19:28:53;97487.88;;;16.38;100.00
52983;BME280;48698;45.736;13.926;2022-09-13T19:34:02;97447.06;;;16.24;100.00
52983;BME280;48698;45.736;13.926;2022-09-13T19:39:07;97449.31;;;16.06;100.00
52983;BME280;48698;45.736;13.926;2022-09-13T19:44:13;97508.06;;;16.55;100.00
52983;BME280;48698;45.736;13.926;2022-09-13T19:49:16;97434.66;;;16.45;100.00
52983;BME280;48698;45.736;13.926;2022-09-13T19:54:20;97415.59;;;16.03;100.00
52983;BME280;48698;45.736;13.926;2022-09-13T19:59:22;97469.13;;;16.38;100.00
52983;BME280;48698;45.736;13.926;2022-09-13T20:04:27;97496.41;;;16.32;100.00
52983;BME280;48698;45.736;13.926;2022-09-13T20:09:31;97460.56;;;16.57;100.00
52983;BME280;48698;45.736;13.926;2022-09-13T20:14:34;97314.34;;;15.74;100.00
52983;BME280;48698;45.736;13.926;2022-09-13T20:19:37;97355.31;;;15.63;100.00
52983;BME280;48698;45.736;13.926;2022-09-13T20:24:47;97494.81;;;16.41;100.00
52983;BME280;48698;45.736;13.926;2022-09-13T20:29:50;97487.44;;;16.21;100.00
52983;BME280;48698;45.736;13.926;2022-09-13T20:34:54;97432.22;;;15.96;100.00
52983;BME280;48698;45.736;13.926;2022-09-13T20:39:57;97511.59;;;16.56;100.00
52983;BME280;48698;45.736;13.926;2022-09-13T20:45:03;97504.09;;;16.37;100.00
52983;BME280;48698;45.736;13.926;2022-09-13T20:50:10;97415.13;;;15.51;100.00
52983;BME280;48698;45.736;13.926;2022-09-13T20:55:14;97424.19;;;15.96;100.00
52983;BME280;48698;45.736;13.926;2022-09-13T21:00:17;97482.97;;;15.97;100.00
52983;BME280;48698;45.736;13.926;2022-09-13T21:05:20;97402.81;;;15.72;100.00
52983;BME280;48698;45.736;13.926;2022-09-13T21:10:23;97408.63;;;15.66;100.00
52983;BME280;48698;45.736;13.926;2022-09-13T21:15:26;97418.59;;;15.99;100.00
52983;BME280;48698;45.736;13.926;2022-09-13T21:20:29;97329.09;;;15.21;100.00
52983;BME280;48698;45.736;13.926;2022-09-13T21:25:35;97504.75;;;16.17;100.00
52983;BME280;48698;45.736;13.926;2022-09-13T21:30:37;97432.59;;;15.68;100.00
52983;BME280;48698;45.736;13.926;2022-09-13T21:35:44;97479.41;;;15.86;100.00
52983;BME280;48698;45.736;13.926;2022-09-13T21:41:01;97516.28;;;15.82;100.00
52983;BME280;48698;45.736;13.926;2022-09-13T21:46:10;97441.25;;;15.35;100.00
52983;BME280;48698;45.736;13.926;2022-09-13T21:51:22;97507.13;;;15.61;100.00
52983;BME280;48698;45.736;13.926;2022-09-13T21:56:27;97524.13;;;15.73;100.00
52983;BME280;48698;45.736;13.926;2022-09-13T22:01:34;97463.66;;;15.70;100.00
52983;BME280;48698;45.736;13.926;2022-09-13T22:06:37;97536.13;;;16.03;100.00
52983;BME280;48698;45.736;13.926;2022-09-13T22:11:42;97474.63;;;15.55;100.00
52983;BME280;48698;45.736;13.926;2022-09-13T22:16:46;97348.16;;;14.80;100.00
52983;BME280;48698;45.736;13.926;2022-09-13T22:21:58;97529.59;;;16.19;100.00
52983;BME280;48698;45.736;13.926;2022-09-13T22:27:01;97520.53;;;15.61;100.00
52983;BME280;48698;45.736;13.926;2022-09-13T22:32:06;97467.03;;;15.48;100.00
52983;BME280;48698;45.736;13.926;2022-09-13T22:37:17;97520.81;;;15.69;100.00
52983;BME280;48698;45.736;13.926;2022-09-13T22:42:20;97484.75;;;15.62;100.00
52983;BME280;48698;45.736;13.926;2022-09-13T22:47:23;97451.41;;;15.42;100.00
52983;BME280;48698;45.736;13.926;2022-09-13T22:52:25;97452.25;;;15.43;100.00
52983;BME280;48698;45.736;13.926;2022-09-13T22:57:28;97491.22;;;15.83;100.00
52983;BME280;48698;45.736;13.926;2022-09-13T23:02:31;97456.13;;;15.75;100.00
52983;BME280;48698;45.736;13.926;2022-09-13T23:07:33;97438.38;;;15.85;100.00
52983;BME280;48698;45.736;13.926;2022-09-13T23:12:36;97432.19;;;15.61;100.00
52983;BME280;48698;45.736;13.926;2022-09-13T23:17:39;97506.59;;;15.92;100.00
52983;BME280;48698;45.736;13.926;2022-09-13T23:22:42;97484.38;;;15.79;100.00
52983;BME280;48698;45.736;13.926;2022-09-13T23:27:45;97436.47;;;15.64;100.00
52983;BME280;48698;45.736;13.926;2022-09-13T23:32:48;97452.06;;;15.93;100.00
52983;BME280;48698;45.736;13.926;2022-09-13T23:37:52;97491.94;;;16.09;100.00
52983;BME280;48698;45.736;13.926;2022-09-13T23:42:55;97446.66;;;15.82;100.00
52983;BME280;48698;45.736;13.926;2022-09-13T23:47:58;97434.69;;;15.75;100.00
52983;BME280;48698;45.736;13.926;2022-09-13T23:53:01;97496.31;;;16.34;100.00
52983;BME280;48698;45.736;13.926;2022-09-13T23:58:03;97411.47;;;16.22;100.00
